sensor_id;sensor_type;location;lat;lon;timestamp;P1;durP1;ratioP1;P2;durP2;ratioP2
28760;SDS011;15917;50.014;8.352;2022-12-20T00:01:28;74.32;;;29.25;;
28760;SDS011;15917;50.014;8.352;2022-12-20T00:03:56;74.72;;;28.95;;
28760;SDS011;15917;50.014;8.352;2022-12-20T00:06:23;75.20;;;31.00;;
28760;SDS011;15917;50.014;8.352;2022-12-20T00:08:56;82.35;;;31.95;;
28760;SDS011;15917;50.014;8.352;2022-12-20T00:11:24;90.28;;;32.05;;
28760;SDS011;15917;50.014;8.352;2022-12-20T00:13:50;83.30;;;32.47;;
28760;SDS011;15917;50.014;8.352;2022-12-20T00:16:18;81.00;;;30.73;;
28760;SDS011;15917;50.014;8.352;2022-12-20T00:18:46;79.63;;;30.60;;
28760;SDS011;15917;50.014;8.352;2022-12-20T00:21:15;72.30;;;30.20;;
28760;SDS011;15917;50.014;8.352;2022-12-20T00:23:41;82.72;;;30.98;;
28760;SDS011;15917;50.014;8.352;2022-12-20T00:26:07;77.10;;;29.45;;
28760;SDS011;15917;50.014;8.352;2022-12-20T00:28:38;81.13;;;30.40;;
28760;SDS011;15917;50.014;8.352;2022-12-20T00:31:05;75.47;;;30.88;;
28760;SDS011;15917;50.014;8.352;2022-12-20T00:33:33;78.45;;;30.08;;
28760;SDS011;15917;50.014;8.352;2022-12-20T00:36:00;88.57;;;32.22;;
28760;SDS011;15917;50.014;8.352;2022-12-20T00:38:26;89.80;;;33.20;;
28760;SDS011;15917;50.014;8.352;2022-12-20T00:43:51;83.78;;;31.40;;
28760;SDS011;15917;50.014;8.352;2022-12-20T00:46:17;76.47;;;30.80;;
28760;SDS011;15917;50.014;8.352;2022-12-20T00:48:44;78.38;;;31.95;;
28760;SDS011;15917;50.014;8.352;2022-12-20T00:51:11;88.15;;;31.38;;
28760;SDS011;15917;50.014;8.352;2022-12-20T00:53:39;83.53;;;32.15;;
28760;SDS011;15917;50.014;8.352;2022-12-20T00:56:05;84.90;;;33.03;;
28760;SDS011;15917;50.014;8.352;2022-12-20T00:58:32;84.75;;;31.35;;
28760;SDS011;15917;50.014;8.352;2022-12-20T01:00:59;93.85;;;32.70;;
28760;SDS011;15917;50.014;8.352;2022-12-20T01:03:26;85.35;;;31.73;;
28760;SDS011;15917;50.014;8.352;2022-12-20T01:05:52;79.55;;;30.40;;
28760;SDS011;15917;50.014;8.352;2022-12-20T01:08:19;85.88;;;30.95;;
28760;SDS011;15917;50.014;8.352;2022-12-20T01:10:45;79.30;;;30.40;;
28760;SDS011;15917;50.014;8.352;2022-12-20T01:13:12;77.05;;;30.38;;
28760;SDS011;15917;50.014;8.352;2022-12-20T01:15:38;67.50;;;29.90;;
28760;SDS011;15917;50.014;8.352;2022-12-20T01:18:03;74.50;;;30.83;;
28760;SDS011;15917;50.014;8.352;2022-12-20T01:20:29;80.47;;;31.52;;
28760;SDS011;15917;50.014;8.352;2022-12-20T01:22:55;72.32;;;29.67;;
28760;SDS011;15917;50.014;8.352;2022-12-20T01:25:20;79.43;;;30.77;;
28760;SDS011;15917;50.014;8.352;2022-12-20T01:27:46;80.57;;;31.48;;
28760;SDS011;15917;50.014;8.352;2022-12-20T01:30:12;80.95;;;32.03;;
28760;SDS011;15917;50.014;8.352;2022-12-20T01:32:38;81.75;;;30.90;;
28760;SDS011;15917;50.014;8.352;2022-12-20T01:35:04;76.95;;;30.40;;
28760;SDS011;15917;50.014;8.352;2022-12-20T01:37:30;70.63;;;28.63;;
28760;SDS011;15917;50.014;8.352;2022-12-20T01:39:56;70.70;;;28.15;;
28760;SDS011;15917;50.014;8.352;2022-12-20T01:42:21;75.43;;;30.30;;
28760;SDS011;15917;50.014;8.352;2022-12-20T01:44:49;71.47;;;29.13;;
28760;SDS011;15917;50.014;8.352;2022-12-20T01:47:18;81.70;;;29.48;;
28760;SDS011;15917;50.014;8.352;2022-12-20T01:49:45;77.00;;;30.00;;
28760;SDS011;15917;50.014;8.352;2022-12-20T01:52:16;72.70;;;28.15;;
28760;SDS011;15917;50.014;8.352;2022-12-20T01:54:51;80.03;;;30.92;;
28760;SDS011;15917;50.014;8.352;2022-12-20T01:57:27;69.22;;;28.38;;
28760;SDS011;15917;50.014;8.352;2022-12-20T02:00:01;67.85;;;27.73;;
28760;SDS011;15917;50.014;8.352;2022-12-20T02:02:39;74.03;;;28.70;;
28760;SDS011;15917;50.014;8.352;2022-12-20T02:05:05;74.65;;;29.23;;
28760;SDS011;15917;50.014;8.352;2022-12-20T02:07:32;77.30;;;29.15;;
28760;SDS011;15917;50.014;8.352;2022-12-20T02:09:59;77.80;;;27.98;;
28760;SDS011;15917;50.014;8.352;2022-12-20T02:12:48;69.35;;;28.23;;
28760;SDS011;15917;50.014;8.352;2022-12-20T02:15:30;76.10;;;27.65;;
28760;SDS011;15917;50.014;8.352;2022-12-20T02:31:14;73.32;;;29.08;;
28760;SDS011;15917;50.014;8.352;2022-12-20T02:33:45;70.88;;;28.23;;
28760;SDS011;15917;50.014;8.352;2022-12-20T02:36:14;83.38;;;30.00;;
28760;SDS011;15917;50.014;8.352;2022-12-20T02:38:41;68.25;;;29.35;;
28760;SDS011;15917;50.014;8.352;2022-12-20T02:41:08;66.57;;;29.67;;
28760;SDS011;15917;50.014;8.352;2022-12-20T02:43:53;79.30;;;29.73;;
28760;SDS011;15917;50.014;8.352;2022-12-20T02:46:42;66.43;;;28.38;;
28760;SDS011;15917;50.014;8.352;2022-12-20T02:49:11;88.85;;;39.60;;
28760;SDS011;15917;50.014;8.352;2022-12-20T02:51:42;84.85;;;36.42;;
28760;SDS011;15917;50.014;8.352;2022-12-20T02:54:09;83.35;;;32.42;;
28760;SDS011;15917;50.014;8.352;2022-12-20T02:56:37;77.18;;;30.08;;
28760;SDS011;15917;50.014;8.352;2022-12-20T02:59:13;78.82;;;29.85;;
28760;SDS011;15917;50.014;8.352;2022-12-20T03:01:44;67.82;;;29.38;;
28760;SDS011;15917;50.014;8.352;2022-12-20T03:04:13;65.55;;;27.83;;
28760;SDS011;15917;50.014;8.352;2022-12-20T03:06:54;76.40;;;29.52;;
28760;SDS011;15917;50.014;8.352;2022-12-20T03:09:24;76.78;;;29.05;;
28760;SDS011;15917;50.014;8.352;2022-12-20T03:11:50;74.65;;;29.02;;
28760;SDS011;15917;50.014;8.352;2022-12-20T03:14:16;67.13;;;28.00;;
28760;SDS011;15917;50.014;8.352;2022-12-20T03:16:43;81.88;;;29.33;;
28760;SDS011;15917;50.014;8.352;2022-12-20T03:19:08;68.50;;;27.52;;
28760;SDS011;15917;50.014;8.352;2022-12-20T03:21:34;66.00;;;27.75;;
28760;SDS011;15917;50.014;8.352;2022-12-20T03:23:59;78.03;;;30.17;;
28760;SDS011;15917;50.014;8.352;2022-12-20T03:26:25;79.25;;;28.95;;
28760;SDS011;15917;50.014;8.352;2022-12-20T03:28:55;74.55;;;29.08;;
28760;SDS011;15917;50.014;8.352;2022-12-20T03:31:24;71.43;;;28.23;;
28760;SDS011;15917;50.014;8.352;2022-12-20T03:33:52;76.53;;;29.67;;
28760;SDS011;15917;50.014;8.352;2022-12-20T03:36:18;74.13;;;29.15;;
28760;SDS011;15917;50.014;8.352;2022-12-20T03:38:48;75.85;;;28.88;;
28760;SDS011;15917;50.014;8.352;2022-12-20T03:41:14;72.90;;;28.98;;
28760;SDS011;15917;50.014;8.352;2022-12-20T03:43:40;76.38;;;29.75;;
28760;SDS011;15917;50.014;8.352;2022-12-20T03:46:06;71.85;;;27.73;;
28760;SDS011;15917;50.014;8.352;2022-12-20T03:48:36;63.53;;;26.95;;
28760;SDS011;15917;50.014;8.352;2022-12-20T03:51:02;67.53;;;27.40;;
28760;SDS011;15917;50.014;8.352;2022-12-20T03:53:28;74.57;;;29.55;;
28760;SDS011;15917;50.014;8.352;2022-12-20T03:55:54;76.50;;;28.63;;
28760;SDS011;15917;50.014;8.352;2022-12-20T03:58:21;69.72;;;28.65;;
28760;SDS011;15917;50.014;8.352;2022-12-20T04:00:46;72.47;;;28.67;;
28760;SDS011;15917;50.014;8.352;2022-12-20T04:03:35;64.60;;;26.95;;
28760;SDS011;15917;50.014;8.352;2022-12-20T04:06:02;67.68;;;26.48;;
28760;SDS011;15917;50.014;8.352;2022-12-20T04:08:29;63.47;;;26.13;;
28760;SDS011;15917;50.014;8.352;2022-12-20T04:10:54;73.70;;;27.85;;
28760;SDS011;15917;50.014;8.352;2022-12-20T04:13:45;73.53;;;27.73;;
28760;SDS011;15917;50.014;8.352;2022-12-20T04:16:13;67.13;;;27.13;;
28760;SDS011;15917;50.014;8.352;2022-12-20T04:18:41;73.32;;;31.08;;
28760;SDS011;15917;50.014;8.352;2022-12-20T04:21:07;65.60;;;27.20;;
28760;SDS011;15917;50.014;8.352;2022-12-20T04:23:39;58.50;;;25.33;;
28760;SDS011;15917;50.014;8.352;2022-12-20T04:26:06;65.18;;;27.85;;
28760;SDS011;15917;50.014;8.352;2022-12-20T04:28:33;67.70;;;26.60;;
28760;SDS011;15917;50.014;8.352;2022-12-20T04:31:00;64.35;;;26.73;;
28760;SDS011;15917;50.014;8.352;2022-12-20T04:33:28;71.72;;;27.40;;
28760;SDS011;15917;50.014;8.352;2022-12-20T04:35:54;81.10;;;32.05;;
28760;SDS011;15917;50.014;8.352;2022-12-20T04:38:21;81.78;;;34.55;;
28760;SDS011;15917;50.014;8.352;2022-12-20T04:40:48;85.65;;;32.88;;
28760;SDS011;15917;50.014;8.352;2022-12-20T04:43:15;64.82;;;29.65;;
28760;SDS011;15917;50.014;8.352;2022-12-20T04:45:41;76.35;;;32.00;;
28760;SDS011;15917;50.014;8.352;2022-12-20T04:48:09;70.93;;;30.80;;
28760;SDS011;15917;50.014;8.352;2022-12-20T04:50:37;69.65;;;29.42;;
28760;SDS011;15917;50.014;8.352;2022-12-20T04:53:04;84.82;;;32.13;;
28760;SDS011;15917;50.014;8.352;2022-12-20T04:55:50;79.95;;;31.00;;
28760;SDS011;15917;50.014;8.352;2022-12-20T04:58:17;69.80;;;29.77;;
28760;SDS011;15917;50.014;8.352;2022-12-20T05:00:43;75.03;;;31.45;;
28760;SDS011;15917;50.014;8.352;2022-12-20T05:03:28;81.85;;;29.90;;
28760;SDS011;15917;50.014;8.352;2022-12-20T05:05:54;78.78;;;31.50;;
28760;SDS011;15917;50.014;8.352;2022-12-20T05:08:21;72.97;;;30.27;;
28760;SDS011;15917;50.014;8.352;2022-12-20T05:10:50;76.35;;;31.15;;
28760;SDS011;15917;50.014;8.352;2022-12-20T05:13:15;81.90;;;29.77;;
28760;SDS011;15917;50.014;8.352;2022-12-20T05:15:43;81.90;;;31.42;;
28760;SDS011;15917;50.014;8.352;2022-12-20T05:18:10;71.07;;;29.33;;
28760;SDS011;15917;50.014;8.352;2022-12-20T05:20:49;74.60;;;29.48;;
28760;SDS011;15917;50.014;8.352;2022-12-20T05:23:36;74.15;;;27.85;;
28760;SDS011;15917;50.014;8.352;2022-12-20T05:26:24;69.33;;;30.07;;
28760;SDS011;15917;50.014;8.352;2022-12-20T05:28:53;65.43;;;26.83;;
28760;SDS011;15917;50.014;8.352;2022-12-20T05:31:19;68.50;;;27.77;;
28760;SDS011;15917;50.014;8.352;2022-12-20T05:33:45;67.88;;;27.50;;
28760;SDS011;15917;50.014;8.352;2022-12-20T05:36:11;64.15;;;28.38;;
28760;SDS011;15917;50.014;8.352;2022-12-20T05:38:37;61.95;;;26.88;;
28760;SDS011;15917;50.014;8.352;2022-12-20T05:41:09;73.32;;;28.73;;
28760;SDS011;15917;50.014;8.352;2022-12-20T05:43:36;57.80;;;24.90;;
28760;SDS011;15917;50.014;8.352;2022-12-20T05:46:03;76.15;;;27.60;;
28760;SDS011;15917;50.014;8.352;2022-12-20T05:48:37;67.85;;;27.65;;
28760;SDS011;15917;50.014;8.352;2022-12-20T05:51:03;59.95;;;27.00;;
28760;SDS011;15917;50.014;8.352;2022-12-20T05:53:31;68.55;;;26.45;;
28760;SDS011;15917;50.014;8.352;2022-12-20T05:56:00;70.00;;;27.98;;
28760;SDS011;15917;50.014;8.352;2022-12-20T05:58:30;72.15;;;27.45;;
28760;SDS011;15917;50.014;8.352;2022-12-20T06:00:59;64.30;;;26.55;;
28760;SDS011;15917;50.014;8.352;2022-12-20T06:03:26;69.90;;;28.77;;
28760;SDS011;15917;50.014;8.352;2022-12-20T06:05:52;71.93;;;27.23;;
28760;SDS011;15917;50.014;8.352;2022-12-20T06:08:25;70.55;;;27.58;;
28760;SDS011;15917;50.014;8.352;2022-12-20T06:10:52;65.03;;;26.20;;
28760;SDS011;15917;50.014;8.352;2022-12-20T06:13:19;70.72;;;27.98;;
28760;SDS011;15917;50.014;8.352;2022-12-20T06:15:46;62.75;;;27.67;;
28760;SDS011;15917;50.014;8.352;2022-12-20T06:18:12;67.47;;;27.88;;
28760;SDS011;15917;50.014;8.352;2022-12-20T06:20:38;67.40;;;27.85;;
28760;SDS011;15917;50.014;8.352;2022-12-20T06:23:06;72.50;;;28.10;;
28760;SDS011;15917;50.014;8.352;2022-12-20T06:25:40;72.95;;;30.10;;
28760;SDS011;15917;50.014;8.352;2022-12-20T06:28:06;76.90;;;29.92;;
28760;SDS011;15917;50.014;8.352;2022-12-20T06:30:32;76.57;;;30.05;;
28760;SDS011;15917;50.014;8.352;2022-12-20T06:33:05;78.25;;;29.23;;
28760;SDS011;15917;50.014;8.352;2022-12-20T06:35:31;65.50;;;29.35;;
28760;SDS011;15917;50.014;8.352;2022-12-20T06:37:58;73.93;;;29.60;;
28760;SDS011;15917;50.014;8.352;2022-12-20T06:40:24;70.88;;;31.70;;
28760;SDS011;15917;50.014;8.352;2022-12-20T06:42:51;78.18;;;29.88;;
28760;SDS011;15917;50.014;8.352;2022-12-20T06:45:21;71.65;;;29.02;;
28760;SDS011;15917;50.014;8.352;2022-12-20T06:47:46;72.90;;;30.92;;
28760;SDS011;15917;50.014;8.352;2022-12-20T06:50:12;73.30;;;29.52;;
28760;SDS011;15917;50.014;8.352;2022-12-20T06:52:39;73.93;;;29.80;;
28760;SDS011;15917;50.014;8.352;2022-12-20T06:55:05;63.05;;;26.83;;
28760;SDS011;15917;50.014;8.352;2022-12-20T06:57:34;68.00;;;27.55;;
28760;SDS011;15917;50.014;8.352;2022-12-20T07:00:00;65.55;;;28.17;;
28760;SDS011;15917;50.014;8.352;2022-12-20T07:02:26;60.00;;;26.08;;
28760;SDS011;15917;50.014;8.352;2022-12-20T07:04:51;63.40;;;25.65;;
28760;SDS011;15917;50.014;8.352;2022-12-20T07:07:17;70.32;;;27.42;;
28760;SDS011;15917;50.014;8.352;2022-12-20T07:09:43;65.85;;;27.60;;
28760;SDS011;15917;50.014;8.352;2022-12-20T07:12:08;59.80;;;26.55;;
28760;SDS011;15917;50.014;8.352;2022-12-20T07:14:34;64.55;;;27.25;;
28760;SDS011;15917;50.014;8.352;2022-12-20T07:17:00;55.92;;;16.60;;
28760;SDS011;15917;50.014;8.352;2022-12-20T07:19:26;65.22;;;26.48;;
28760;SDS011;15917;50.014;8.352;2022-12-20T07:21:52;55.85;;;24.63;;
28760;SDS011;15917;50.014;8.352;2022-12-20T07:24:17;66.20;;;25.65;;
28760;SDS011;15917;50.014;8.352;2022-12-20T07:26:43;52.70;;;23.10;;
28760;SDS011;15917;50.014;8.352;2022-12-20T07:29:09;54.80;;;22.73;;
28760;SDS011;15917;50.014;8.352;2022-12-20T07:31:36;54.97;;;22.10;;
28760;SDS011;15917;50.014;8.352;2022-12-20T07:34:02;57.72;;;24.00;;
28760;SDS011;15917;50.014;8.352;2022-12-20T07:36:27;55.80;;;23.85;;
28760;SDS011;15917;50.014;8.352;2022-12-20T07:38:53;56.45;;;24.63;;
28760;SDS011;15917;50.014;8.352;2022-12-20T07:41:18;59.50;;;24.40;;
28760;SDS011;15917;50.014;8.352;2022-12-20T07:43:44;55.97;;;24.90;;
28760;SDS011;15917;50.014;8.352;2022-12-20T07:46:14;65.22;;;26.65;;
28760;SDS011;15917;50.014;8.352;2022-12-20T07:48:41;69.18;;;25.48;;
28760;SDS011;15917;50.014;8.352;2022-12-20T07:51:08;68.47;;;28.42;;
28760;SDS011;15917;50.014;8.352;2022-12-20T07:53:47;66.72;;;27.55;;
28760;SDS011;15917;50.014;8.352;2022-12-20T07:56:18;63.85;;;27.77;;
28760;SDS011;15917;50.014;8.352;2022-12-20T07:58:45;75.75;;;27.77;;
28760;SDS011;15917;50.014;8.352;2022-12-20T08:01:13;75.93;;;27.52;;
28760;SDS011;15917;50.014;8.352;2022-12-20T08:03:41;61.05;;;27.70;;
28760;SDS011;15917;50.014;8.352;2022-12-20T08:06:10;66.72;;;28.88;;
28760;SDS011;15917;50.014;8.352;2022-12-20T08:08:39;72.22;;;30.05;;
28760;SDS011;15917;50.014;8.352;2022-12-20T08:11:08;63.88;;;28.23;;
28760;SDS011;15917;50.014;8.352;2022-12-20T08:13:35;66.28;;;28.95;;
28760;SDS011;15917;50.014;8.352;2022-12-20T08:16:01;72.00;;;29.83;;
28760;SDS011;15917;50.014;8.352;2022-12-20T08:18:26;64.20;;;27.42;;
28760;SDS011;15917;50.014;8.352;2022-12-20T08:20:52;66.70;;;27.35;;
28760;SDS011;15917;50.014;8.352;2022-12-20T08:23:18;74.70;;;28.45;;
28760;SDS011;15917;50.014;8.352;2022-12-20T08:25:43;72.50;;;31.95;;
28760;SDS011;15917;50.014;8.352;2022-12-20T08:28:09;69.40;;;28.00;;
28760;SDS011;15917;50.014;8.352;2022-12-20T08:30:35;53.22;;;22.35;;
28760;SDS011;15917;50.014;8.352;2022-12-20T08:33:02;54.58;;;26.48;;
28760;SDS011;15917;50.014;8.352;2022-12-20T08:35:27;53.47;;;23.00;;
28760;SDS011;15917;50.014;8.352;2022-12-20T08:37:53;53.75;;;22.98;;
28760;SDS011;15917;50.014;8.352;2022-12-20T08:40:19;60.53;;;27.25;;
28760;SDS011;15917;50.014;8.352;2022-12-20T08:42:45;60.80;;;29.92;;
28760;SDS011;15917;50.014;8.352;2022-12-20T08:45:10;63.67;;;28.38;;
28760;SDS011;15917;50.014;8.352;2022-12-20T08:47:36;58.60;;;24.30;;
28760;SDS011;15917;50.014;8.352;2022-12-20T08:50:02;63.45;;;28.27;;
28760;SDS011;15917;50.014;8.352;2022-12-20T08:52:28;59.05;;;26.60;;
28760;SDS011;15917;50.014;8.352;2022-12-20T08:54:54;67.85;;;29.48;;
28760;SDS011;15917;50.014;8.352;2022-12-20T08:57:20;70.95;;;31.63;;
28760;SDS011;15917;50.014;8.352;2022-12-20T08:59:45;59.72;;;26.88;;
28760;SDS011;15917;50.014;8.352;2022-12-20T09:02:11;62.10;;;25.13;;
28760;SDS011;15917;50.014;8.352;2022-12-20T09:04:36;77.35;;;30.27;;
28760;SDS011;15917;50.014;8.352;2022-12-20T09:07:02;65.22;;;27.35;;
28760;SDS011;15917;50.014;8.352;2022-12-20T09:09:28;65.97;;;27.50;;
28760;SDS011;15917;50.014;8.352;2022-12-20T09:11:53;68.22;;;27.70;;
28760;SDS011;15917;50.014;8.352;2022-12-20T09:14:19;71.40;;;29.55;;
28760;SDS011;15917;50.014;8.352;2022-12-20T09:16:45;92.60;;;38.00;;
28760;SDS011;15917;50.014;8.352;2022-12-20T09:19:11;69.85;;;26.90;;
28760;SDS011;15917;50.014;8.352;2022-12-20T09:21:38;95.13;;;37.40;;
28760;SDS011;15917;50.014;8.352;2022-12-20T09:24:04;71.82;;;29.17;;
28760;SDS011;15917;50.014;8.352;2022-12-20T09:26:30;60.00;;;25.52;;
28760;SDS011;15917;50.014;8.352;2022-12-20T09:28:56;71.38;;;26.00;;
28760;SDS011;15917;50.014;8.352;2022-12-20T09:31:23;60.15;;;25.35;;
28760;SDS011;15917;50.014;8.352;2022-12-20T09:33:53;55.97;;;24.50;;
28760;SDS011;15917;50.014;8.352;2022-12-20T09:36:20;60.60;;;25.63;;
28760;SDS011;15917;50.014;8.352;2022-12-20T09:38:47;84.00;;;30.67;;
28760;SDS011;15917;50.014;8.352;2022-12-20T09:43:57;82.53;;;31.55;;
28760;SDS011;15917;50.014;8.352;2022-12-20T09:46:28;107.22;;;42.45;;
28760;SDS011;15917;50.014;8.352;2022-12-20T09:48:54;87.07;;;39.38;;
28760;SDS011;15917;50.014;8.352;2022-12-20T09:51:27;80.85;;;33.97;;
28760;SDS011;15917;50.014;8.352;2022-12-20T09:54:14;73.50;;;31.13;;
28760;SDS011;15917;50.014;8.352;2022-12-20T09:56:57;84.78;;;32.13;;
28760;SDS011;15917;50.014;8.352;2022-12-20T09:59:29;76.57;;;33.42;;
28760;SDS011;15917;50.014;8.352;2022-12-20T10:01:59;94.00;;;36.90;;
28760;SDS011;15917;50.014;8.352;2022-12-20T10:04:25;82.85;;;33.08;;
28760;SDS011;15917;50.014;8.352;2022-12-20T10:10:02;72.35;;;28.55;;
28760;SDS011;15917;50.014;8.352;2022-12-20T10:15:40;79.47;;;34.15;;
28760;SDS011;15917;50.014;8.352;2022-12-20T10:26:07;87.55;;;36.25;;
28760;SDS011;15917;50.014;8.352;2022-12-20T10:31:00;85.72;;;32.28;;
28760;SDS011;15917;50.014;8.352;2022-12-20T10:33:29;77.13;;;31.10;;
28760;SDS011;15917;50.014;8.352;2022-12-20T10:36:15;84.35;;;31.33;;
28760;SDS011;15917;50.014;8.352;2022-12-20T10:39:02;83.82;;;31.25;;
28760;SDS011;15917;50.014;8.352;2022-12-20T10:41:31;72.88;;;30.48;;
28760;SDS011;15917;50.014;8.352;2022-12-20T10:44:25;70.95;;;28.27;;
28760;SDS011;15917;50.014;8.352;2022-12-20T10:46:55;66.72;;;28.15;;
28760;SDS011;15917;50.014;8.352;2022-12-20T10:56:59;70.55;;;29.08;;
28760;SDS011;15917;50.014;8.352;2022-12-20T10:59:38;67.85;;;29.48;;
28760;SDS011;15917;50.014;8.352;2022-12-20T11:07:28;61.10;;;28.77;;
28760;SDS011;15917;50.014;8.352;2022-12-20T11:12:36;56.83;;;27.23;;
28760;SDS011;15917;50.014;8.352;2022-12-20T11:15:20;66.72;;;26.85;;
28760;SDS011;15917;50.014;8.352;2022-12-20T11:17:52;61.70;;;25.35;;
28760;SDS011;15917;50.014;8.352;2022-12-20T11:23:33;58.55;;;25.25;;
28760;SDS011;15917;50.014;8.352;2022-12-20T11:28:53;61.08;;;25.52;;
28760;SDS011;15917;50.014;8.352;2022-12-20T11:31:26;69.80;;;29.20;;
28760;SDS011;15917;50.014;8.352;2022-12-20T11:37:08;54.78;;;24.15;;
28760;SDS011;15917;50.014;8.352;2022-12-20T11:42:31;59.05;;;25.52;;
28760;SDS011;15917;50.014;8.352;2022-12-20T11:45:27;51.53;;;23.30;;
28760;SDS011;15917;50.014;8.352;2022-12-20T11:51:10;48.03;;;19.20;;
28760;SDS011;15917;50.014;8.352;2022-12-20T11:53:41;56.70;;;23.45;;
28760;SDS011;15917;50.014;8.352;2022-12-20T11:56:18;47.55;;;20.58;;
28760;SDS011;15917;50.014;8.352;2022-12-20T11:59:12;47.57;;;20.90;;
28760;SDS011;15917;50.014;8.352;2022-12-20T12:01:41;45.92;;;20.85;;
28760;SDS011;15917;50.014;8.352;2022-12-20T12:04:14;40.78;;;19.33;;
28760;SDS011;15917;50.014;8.352;2022-12-20T12:10:02;44.33;;;21.00;;
28760;SDS011;15917;50.014;8.352;2022-12-20T12:12:46;43.38;;;20.88;;
28760;SDS011;15917;50.014;8.352;2022-12-20T12:15:21;49.95;;;21.65;;
28760;SDS011;15917;50.014;8.352;2022-12-20T12:18:04;57.13;;;22.38;;
28760;SDS011;15917;50.014;8.352;2022-12-20T12:23:44;55.35;;;24.20;;
28760;SDS011;15917;50.014;8.352;2022-12-20T12:28:59;61.35;;;23.67;;
28760;SDS011;15917;50.014;8.352;2022-12-20T12:31:37;49.17;;;23.23;;
28760;SDS011;15917;50.014;8.352;2022-12-20T12:43:12;73.40;;;26.58;;
28760;SDS011;15917;50.014;8.352;2022-12-20T12:46:00;61.83;;;27.48;;
28760;SDS011;15917;50.014;8.352;2022-12-20T12:48:38;53.30;;;22.38;;
28760;SDS011;15917;50.014;8.352;2022-12-20T12:51:04;55.65;;;23.77;;
28760;SDS011;15917;50.014;8.352;2022-12-20T12:53:35;55.25;;;22.00;;
28760;SDS011;15917;50.014;8.352;2022-12-20T12:56:28;46.28;;;21.85;;
28760;SDS011;15917;50.014;8.352;2022-12-20T13:04:28;59.97;;;23.08;;
28760;SDS011;15917;50.014;8.352;2022-12-20T13:09:46;73.55;;;28.17;;
28760;SDS011;15917;50.014;8.352;2022-12-20T13:17:45;54.13;;;23.65;;
28760;SDS011;15917;50.014;8.352;2022-12-20T13:20:27;47.08;;;20.92;;
28760;SDS011;15917;50.014;8.352;2022-12-20T13:23:04;46.20;;;21.70;;
28760;SDS011;15917;50.014;8.352;2022-12-20T13:25:36;47.70;;;22.20;;
28760;SDS011;15917;50.014;8.352;2022-12-20T13:42:06;51.63;;;21.60;;
28760;SDS011;15917;50.014;8.352;2022-12-20T13:49:23;51.95;;;23.73;;
28760;SDS011;15917;50.014;8.352;2022-12-20T13:54:58;50.22;;;23.35;;
28760;SDS011;15917;50.014;8.352;2022-12-20T13:57:41;50.75;;;22.55;;
28760;SDS011;15917;50.014;8.352;2022-12-20T14:00:13;50.50;;;22.70;;
28760;SDS011;15917;50.014;8.352;2022-12-20T14:02:41;50.75;;;23.13;;
28760;SDS011;15917;50.014;8.352;2022-12-20T14:05:15;52.67;;;23.52;;
28760;SDS011;15917;50.014;8.352;2022-12-20T14:07:45;57.08;;;24.45;;
28760;SDS011;15917;50.014;8.352;2022-12-20T14:10:18;57.75;;;25.40;;
28760;SDS011;15917;50.014;8.352;2022-12-20T14:12:47;50.20;;;25.75;;
28760;SDS011;15917;50.014;8.352;2022-12-20T14:15:28;51.10;;;23.50;;
28760;SDS011;15917;50.014;8.352;2022-12-20T14:18:05;50.90;;;23.77;;
28760;SDS011;15917;50.014;8.352;2022-12-20T14:20:46;65.00;;;25.20;;
28760;SDS011;15917;50.014;8.352;2022-12-20T14:23:19;58.45;;;26.25;;
28760;SDS011;15917;50.014;8.352;2022-12-20T14:25:50;64.15;;;25.98;;
28760;SDS011;15917;50.014;8.352;2022-12-20T14:31:05;50.25;;;24.05;;
28760;SDS011;15917;50.014;8.352;2022-12-20T14:33:44;58.75;;;23.85;;
28760;SDS011;15917;50.014;8.352;2022-12-20T14:36:18;58.10;;;24.13;;
28760;SDS011;15917;50.014;8.352;2022-12-20T14:38:46;52.60;;;23.70;;
28760;SDS011;15917;50.014;8.352;2022-12-20T14:44:01;50.67;;;21.50;;
28760;SDS011;15917;50.014;8.352;2022-12-20T14:46:37;55.10;;;22.08;;
28760;SDS011;15917;50.014;8.352;2022-12-20T14:51:47;45.08;;;21.30;;
28760;SDS011;15917;50.014;8.352;2022-12-20T14:56:44;43.90;;;21.98;;
28760;SDS011;15917;50.014;8.352;2022-12-20T14:59:15;48.83;;;23.27;;
28760;SDS011;15917;50.014;8.352;2022-12-20T15:01:48;52.08;;;23.67;;
28760;SDS011;15917;50.014;8.352;2022-12-20T15:04:22;49.05;;;23.13;;
28760;SDS011;15917;50.014;8.352;2022-12-20T15:06:59;67.28;;;24.75;;
28760;SDS011;15917;50.014;8.352;2022-12-20T15:09:25;54.85;;;23.52;;
28760;SDS011;15917;50.014;8.352;2022-12-20T15:11:51;51.17;;;24.65;;
28760;SDS011;15917;50.014;8.352;2022-12-20T15:14:36;50.22;;;24.10;;
28760;SDS011;15917;50.014;8.352;2022-12-20T15:17:08;51.45;;;22.73;;
28760;SDS011;15917;50.014;8.352;2022-12-20T15:19:36;48.90;;;22.67;;
28760;SDS011;15917;50.014;8.352;2022-12-20T15:22:01;50.00;;;23.90;;
28760;SDS011;15917;50.014;8.352;2022-12-20T15:24:27;64.07;;;26.88;;
28760;SDS011;15917;50.014;8.352;2022-12-20T15:26:53;58.58;;;26.42;;
28760;SDS011;15917;50.014;8.352;2022-12-20T15:29:24;57.92;;;25.95;;
28760;SDS011;15917;50.014;8.352;2022-12-20T15:31:52;60.78;;;26.52;;
28760;SDS011;15917;50.014;8.352;2022-12-20T15:34:29;59.90;;;28.65;;
28760;SDS011;15917;50.014;8.352;2022-12-20T15:36:58;59.53;;;27.60;;
28760;SDS011;15917;50.014;8.352;2022-12-20T15:39:24;49.40;;;23.70;;
28760;SDS011;15917;50.014;8.352;2022-12-20T15:41:50;51.05;;;24.30;;
28760;SDS011;15917;50.014;8.352;2022-12-20T15:44:20;55.22;;;24.50;;
28760;SDS011;15917;50.014;8.352;2022-12-20T15:46:48;57.17;;;26.90;;
28760;SDS011;15917;50.014;8.352;2022-12-20T15:49:21;68.15;;;27.75;;
28760;SDS011;15917;50.014;8.352;2022-12-20T15:51:50;69.13;;;28.25;;
28760;SDS011;15917;50.014;8.352;2022-12-20T15:54:24;77.00;;;32.40;;
28760;SDS011;15917;50.014;8.352;2022-12-20T15:56:55;58.47;;;26.93;;
28760;SDS011;15917;50.014;8.352;2022-12-20T15:59:22;60.80;;;27.38;;
28760;SDS011;15917;50.014;8.352;2022-12-20T16:01:47;67.72;;;28.63;;
28760;SDS011;15917;50.014;8.352;2022-12-20T16:04:14;70.05;;;29.10;;
28760;SDS011;15917;50.014;8.352;2022-12-20T16:06:44;69.22;;;28.73;;
28760;SDS011;15917;50.014;8.352;2022-12-20T16:09:11;73.50;;;27.42;;
28760;SDS011;15917;50.014;8.352;2022-12-20T16:11:37;65.90;;;26.65;;
28760;SDS011;15917;50.014;8.352;2022-12-20T16:14:04;61.80;;;24.98;;
28760;SDS011;15917;50.014;8.352;2022-12-20T16:16:34;58.15;;;24.92;;
28760;SDS011;15917;50.014;8.352;2022-12-20T16:19:01;61.03;;;26.55;;
28760;SDS011;15917;50.014;8.352;2022-12-20T16:21:31;51.22;;;25.60;;
28760;SDS011;15917;50.014;8.352;2022-12-20T16:24:00;68.53;;;27.92;;
28760;SDS011;15917;50.014;8.352;2022-12-20T16:26:26;64.88;;;30.15;;
28760;SDS011;15917;50.014;8.352;2022-12-20T16:28:53;66.47;;;29.55;;
28760;SDS011;15917;50.014;8.352;2022-12-20T16:31:33;66.38;;;26.65;;
28760;SDS011;15917;50.014;8.352;2022-12-20T16:34:11;63.88;;;28.98;;
28760;SDS011;15917;50.014;8.352;2022-12-20T16:36:38;64.47;;;28.40;;
28760;SDS011;15917;50.014;8.352;2022-12-20T16:39:04;78.15;;;35.40;;
28760;SDS011;15917;50.014;8.352;2022-12-20T16:41:31;74.97;;;32.70;;
28760;SDS011;15917;50.014;8.352;2022-12-20T16:43:57;77.10;;;33.53;;
28760;SDS011;15917;50.014;8.352;2022-12-20T16:46:26;69.05;;;31.63;;